Flight Track Log - Related Links

Times and Time Zones

All times are in EDT time to prevent confusion due to time zone crossing. See the UPS1337 flight status page for this flight to view local times or setup timezone preferences in your user account.

Time Position Orientation Groundspeed Altitude Reporting Facility
EDT Latitude Longitude Course Direction KTS MPH feet Rate Location/Type
Mon 09:42:47 PM 27.9167 -82.6833 North 162 186 600  Level Tampa TRACON
Mon 09:44:18 PM 27.9839 -82.6794 North 198 228 4,200 3,000 Climbing Miami Center
Mon 09:45:11 PM 28.0500 -82.6500 21° North 259 298 7,800 2,289 Climbing Tampa TRACON
Mon 09:51:54 PM 28.6463 -82.9653 330° Northwest 466 536 21,600 2,045 Climbing FlightAware ADS-B
Mon 09:52:34 PM 28.7216 -83.0151 330° Northwest 477 549 22,900 1,833 Climbing FlightAware ADS-B
Mon 09:53:06 PM 28.7840 -83.0563 330° Northwest 489 563 23,800 1,775 Climbing FlightAware ADS-B
Mon 09:53:45 PM 28.8616 -83.1072 331° Northwest 499 574 25,000 1,823 Climbing FlightAware ADS-B
Mon 09:54:25 PM 28.9412 -83.1425 340° North 505 581 26,200 1,800 Climbing FlightAware ADS-B
Mon 09:55:05 PM 29.0353 -83.1819 340° North 510 587 27,400 2,000 Climbing FlightAware ADS-B
Mon 09:55:37 PM 29.1052 -83.2115 340° North 507 583 28,600 2,167 Climbing FlightAware ADS-B
Mon 09:56:17 PM 29.1574 -83.2334 342° North 504 580 30,000 2,638 Climbing FlightAware ADS-B
Mon 09:57:33 PM 29.3584 -83.2946 347° North 467 537 33,700 2,143 Climbing FlightAware ADS-B
Mon 09:58:09 PM 29.3627 -83.2958 347° North 469 540 34,000 188 Climbing FlightAware ADS-B
Mon 09:59:09 PM 29.5640 -83.3475 347° North 473 544 34,000  Level FlightAware ADS-B
Mon 09:59:53 PM 29.6573 -83.3715 347° North 474 545 34,000  Level FlightAware ADS-B
Mon 10:00:34 PM 29.7439 -83.3938 347° North 469 540 34,000  Level FlightAware ADS-B
Mon 10:01:05 PM 29.8108 -83.4109 347° North 469 540 34,000  Level FlightAware ADS-B
Mon 10:01:46 PM 29.8888 -83.4311 347° North 470 541 34,000  Level FlightAware ADS-B
Mon 10:02:18 PM 29.9560 -83.4485 347° North 471 542 34,000  Level FlightAware ADS-B
Mon 10:02:58 PM 30.0429 -83.4709 348° North 471 542 34,000  Level FlightAware ADS-B
Mon 10:03:28 PM 30.1145 -83.4893 348° North 470 541 34,000  Level FlightAware ADS-B
Mon 10:04:01 PM 30.1842 -83.5074 347° North 473 544 34,000  Level FlightAware ADS-B
Mon 10:04:41 PM 30.2694 -83.5294 347° North 474 545 34,000  Level FlightAware ADS-B
Mon 10:05:21 PM 30.3547 -83.5516 347° North 472 543 34,000  Level FlightAware ADS-B
Mon 10:05:51 PM 30.4053 -83.5647 347° North 471 542 34,000  Level FlightAware ADS-B
Mon 10:06:41 PM 30.5243 -83.5957 347° North 469 540 34,000  Level FlightAware ADS-B
Mon 10:07:22 PM 30.6015 -83.6160 347° North 470 541 34,000  Level FlightAware ADS-B
Mon 10:08:02 PM 30.6972 -83.6412 347° North 473 544 34,000  Level FlightAware ADS-B
Mon 10:08:46 PM 30.7883 -83.6652 347° North 473 544 34,000  Level FlightAware ADS-B
Mon 10:09:24 PM 30.8692 -83.6864 347° North 473 544 34,000  Level FlightAware ADS-B
Mon 10:10:10 PM 30.9714 -83.7132 347° North 475 547 34,000  Level FlightAware ADS-B
Mon 10:10:41 PM 31.0281 -83.7289 347° North 467 537 34,000  Level Jacksonville Center
Mon 10:13:01 PM 31.3100 -83.8025 347° North 476 548 34,000  Level Atlanta Center
Mon 10:14:02 PM 31.4403 -83.8383 347° North 476 548 34,000  Level Atlanta Center
Mon 10:15:04 PM 31.5703 -83.8758 346° North 476 548 34,000  Level Atlanta Center
Mon 10:16:05 PM 31.7072 -83.9131 347° North 485 558 34,000  Level Atlanta Center
Mon 10:17:07 PM 31.8400 -83.9450 348° North 477 549 34,000  Level Atlanta Center
Mon 10:18:08 PM 31.9686 -83.9792 347° North 476 548 34,000  Level Atlanta Center
Mon 10:19:09 PM 32.1258 -84.0206 347° North 477 549 34,000  Level Atlanta Center
Mon 10:20:10 PM 32.2561 -84.0558 347° North 478 550 34,000  Level Atlanta Center
Mon 10:21:12 PM 32.3864 -84.0906 347° North 478 550 34,000  Level Atlanta Center
Mon 10:22:13 PM 32.5158 -84.1267 347° North 478 550 34,000  Level Atlanta Center
Mon 10:23:15 PM 32.6456 -84.1619 347° North 478 550 34,000  Level Atlanta Center
Mon 10:24:16 PM 32.7750 -84.1972 347° North 478 550 34,000  Level Atlanta Center
Mon 10:25:17 PM 32.9022 -84.2336 346° North 475 547 34,000  Level Atlanta Center
Mon 10:26:18 PM 33.0314 -84.2686 347° North 475 547 34,000  Level Atlanta Center
Mon 10:27:20 PM 33.1614 -84.3042 347° North 476 548 34,000  Level Atlanta Center
Mon 10:33:35 PM 33.9944 -84.5237 349° North 472 543 34,000  Level FlightAware ADS-B (KDZJ)
Mon 10:34:15 PM 34.0814 -84.5449 349° North 473 544 34,000  Level FlightAware ADS-B (KDZJ)
Mon 10:34:54 PM 34.1655 -84.5654 349° North 472 543 34,000  Level FlightAware ADS-B (KDZJ)
Mon 10:35:35 PM 34.2524 -84.5867 348° North 463 533 34,000  Level FlightAware ADS-B (KDZJ)
Mon 10:36:16 PM 34.3390 -84.6087 348° North 462 532 34,000  Level FlightAware ADS-B (KDZJ)
Mon 10:36:56 PM 34.4251 -84.6304 348° North 462 532 34,000  Level FlightAware ADS-B (KDZJ)
Mon 10:37:36 PM 34.5095 -84.6517 348° North 460 529 34,000  Level FlightAware ADS-B (KDZJ)
Mon 10:38:16 PM 34.5956 -84.6735 348° North 460 529 34,000  Level FlightAware ADS-B (KDZJ)
Mon 10:38:56 PM 34.6790 -84.6947 348° North 459 528 34,000  Level FlightAware ADS-B (KDZJ)
Mon 10:39:35 PM 34.7630 -84.7161 348° North 458 527 34,000  Level FlightAware ADS-B (KDZJ)
Mon 10:40:16 PM 34.8478 -84.7377 348° North 459 528 34,000  Level FlightAware ADS-B (KDZJ)
Mon 10:41:16 PM 34.9758 -84.7704 348° North 460 529 34,000  Level FlightAware ADS-B (KDZJ)
Mon 10:41:56 PM 35.0615 -84.7923 348° North 459 528 34,000  Level FlightAware ADS-B (KDZJ)
Mon 10:42:32 PM 35.1372 -84.8118 348° North 461 531 34,000  Level FlightAware ADS-B (KDZJ)
Mon 10:43:52 PM 35.3045 -84.8548 348° North 470 541 34,000  Level FlightAware ADS-B (KMDQ)
Mon 10:44:27 PM 35.3806 -84.8744 348° North 471 542 34,000  Level FlightAware ADS-B (KMDQ)
Mon 10:45:13 PM 35.4777 -84.8995 348° North 470 541 34,000  Level FlightAware ADS-B (KMDQ)
Mon 10:45:51 PM 35.5540 -84.9194 348° North 468 539 34,000 -304 Level FlightAware ADS-B (KMDQ)
Mon 10:46:32 PM 35.6448 -84.9431 348° North 469 540 33,600 -900 Descending FlightAware ADS-B (KMDQ)
Mon 10:47:11 PM 35.7287 -84.9649 348° North 475 547 32,800 -1,280 Descending FlightAware ADS-B (KMDQ)
Mon 10:47:47 PM 35.8051 -84.9845 348° North 479 551 32,000 -1,545 Descending FlightAware ADS-B (KMDQ)
Mon 10:48:17 PM 35.8729 -85.0003 350° North 477 549 31,100 -1,143 Descending FlightAware ADS-B (KMDQ)
Mon 10:49:11 PM 35.9891 -85.0269 349° North 475 547 30,400 -337 Descending FlightAware ADS-B (KMDQ)
Mon 10:51:33 PM 36.2949 -85.1125 341° North 477 549 30,000 -297 Descending FlightAware ADS-B (KMDQ)
Mon 10:52:13 PM 36.3777 -85.1472 342° North 470 541 29,500 -2,110 Descending FlightAware ADS-B (KMDQ)
Mon 10:53:04 PM 36.4837 -85.1914 342° North 478 550 26,800 -2,584 Descending FlightAware ADS-B
Mon 10:55:42 PM 36.8074 -85.3270 341° North 455 524 20,500 -2,304 Descending FlightAware ADS-B
Mon 10:57:53 PM 37.0541 -85.4475 324° Northwest 411 473 15,700 -2,136 Descending FlightAware ADS-B
Mon 10:58:53 PM 37.1411 -85.5275 324° Northwest 392 451 13,700 -1,785 Descending FlightAware ADS-B
Mon 10:59:54 PM 37.2244 -85.6035 323° Northwest 380 437 12,100 -1,235 Descending FlightAware ADS-B
Mon 11:02:56 PM 37.4794 -85.6626 356° North 273 314 8,700 -1,062 Descending FlightAware ADS-B
Mon 11:03:57 PM 37.5562 -85.6688 356° North 274 315 7,800 -976 Descending FlightAware ADS-B
Mon 11:04:59 PM 37.6298 -85.6702 359° North 268 308 6,700 -1,366 Descending FlightAware ADS-B
Mon 11:06:00 PM 37.7002 -85.6704 360° North 266 306 5,000 -1,622 Descending FlightAware ADS-B
Mon 11:06:50 PM 37.7650 -85.6714 359° North 263 303 3,700 -1,041 Descending FlightAware ADS-B
Mon 11:08:01 PM 37.8586 -85.6735 360° North 264 304 2,900 -364 Descending FlightAware ADS-B
Mon 11:09:02 PM 37.9316 -85.6746 359° North 231 266 2,900  Level FlightAware ADS-B
Mon 11:10:02 PM 37.9868 -85.6826 347° North 204 235 2,900 -194 Level FlightAware ADS-B
Mon 11:11:06 PM 38.0434 -85.7019 345° North 178 205 2,500 -567 Descending FlightAware ADS-B
Mon 11:12:09 PM 38.0813 -85.7140 345° North 142 163 1,700 -732 Descending FlightAware ADS-B
Mon 11:13:09 PM 38.1150 -85.7251 345° North 142 163 1,000 -641 Descending FlightAware ADS-B
Mon 11:13:52 PM 38.1500 -85.7333 345° North 138 159 600 -558 Descending Louisville TRACON
Mon 11:15:00 PM 38.1741 -85.7365 293° West  Level Estimated

Login

Don't have an account? Register now (free) for customized features, flight alerts, and more!